METAR Data
IDs: Format: Raw Decoded Include TAF

Data at: 0623 UTC 23 Feb 2019

PAGA 230556Z AUTO 10014KT 10SM CLR M09/M12 A3027 RMK AO2 SLP254 T10891117 11078 21089 52004 FZRANO
PAGA 230456Z AUTO 09007KT 10SM CLR M08/M11 A3026 RMK AO2 SLP252 T10831111 FZRANO
PAGA 230356Z AUTO 11011KT 10SM CLR M08/M11 A3026 RMK AO2 SLP252 T10781111 FZRANO
PAGA 230256Z AUTO 11013KT 10SM BKN075 BKN090 M08/M11 A3026 RMK AO2 SLP250 T10781106 56009 FZRANO
PAGA 230156Z AUTO 12010KT 10SM OVC065 M08/M11 A3027 RMK AO2 SLP254 T10781106 FZRANO
PAGA 230056Z AUTO 11013KT 10SM FEW044 SCT055 BKN100 M08/M11 A3026 RMK AO2 SLP252 T10831111 FZRANO
PAGA 222356Z AUTO 10010KT 10SM OVC070 M09/M11 A3028 RMK AO2 SLP259 T10891111 11089 21106 51001 FZRANO
PAGA 222256Z AUTO 11015KT 10SM BKN070 M09/M11 A3028 RMK AO2 SLP258 T10891111 FZRANO
PAGA 222156Z AUTO 11016KT 10SM FEW120 M09/M12 A3028 RMK AO2 SLP259 T10941117 FZRANO
PAGA 222056Z AUTO 10014KT 10SM FEW008 M10/M12 A3028 RMK AO2 SLP257 T11001122 50000 FZRANO
PAGA 222052Z AUTO 10012KT 10SM SCT008 M10/M12 A3028 RMK AO2 FZRANO
PAGA 221956Z AUTO 12010KT 10SM OVC008 M10/M12 A3028 RMK AO2 SLP259 T11001117 FZRANO
PAGA 221910Z AUTO 10007KT 10SM BKN008 OVC045 M11/M12 A3028 RMK AO2 FZRANO
PAGA 221856Z AUTO 10008KT 10SM BKN010 OVC045 M11/M12 A3028 RMK AO2 CIG 007V010 SLP257 T11061122 FZRANO
PAGA 221756Z AUTO 10009KT 10SM BKN010 OVC046 M11/M12 A3027 RMK AO2 SLP253 60000 T11061122 11100 21117 55001 FZRANO
PAGA 221749Z AUTO 11009KT 10SM BKN012 OVC046 M11/M12 A3026 RMK AO2 FZRANO
PAGA 221731Z AUTO 11009KT 10SM SCT012 BKN046 M11/M12 A3026 RMK AO2 FZRANO
PAGA 221714Z AUTO 10010KT 10SM BKN012 BKN046 M11/M13 A3026 RMK AO2 FZRANO
PAGA 221656Z AUTO 09009KT 10SM SCT012 BKN046 M11/M13 A3026 RMK AO2 SLP251 T11111128 FZRANO
PAGA 221641Z AUTO 10009KT 10SM SCT012 BKN046 M12/M13 A3026 RMK AO2 FZRANO
PAGA 221556Z AUTO 11005KT 10SM BKN012 M12/M13 A3027 RMK AO2 SLP256 T11171128 FZRANO
PAGA 221504Z AUTO 10007KT 10SM SCT006 BKN048 M11/M13 A3027 RMK AO2 FZRANO
PAGA 221456Z AUTO 10008KT 10SM BKN006 BKN048 M11/M13 A3027 RMK AO2 SLP254 60000 T11111128 53009 FZRANO
PAGA 221425Z AUTO 10007KT 10SM BKN006 BKN050 M11/M13 A3027 RMK AO2 FZRANO
PAGA 221417Z AUTO 11008KT 10SM SCT006 BKN050 M11/M13 A3026 RMK AO2 FZRANO
PAGA 221356Z AUTO 11009KT 10SM OVC050 M11/M13 A3025 RMK AO2 SNE1259 SLP250 P0000 T11061128 FZRANO
PAGA 221256Z AUTO 11008KT 9SM -SN OVC050 M10/M12 A3025 RMK AO2 SNB06 SLP249 P0000 T11001122 FZRANO
PAGA 221156Z AUTO 10008KT 10SM FEW031 OVC048 M11/M13 A3024 RMK AO2 SNB02E25 SLP245 P0000 60000 T11061128 11106 21128 50013 FZRANO
PAGA 221056Z AUTO 11005KT 10SM BKN036 BKN070 M11/M13 A3024 RMK AO2 SNB14E40 SLP246 P0000 T11111133 FZRANO
PAGA 220956Z AUTO 11006KT 10SM OVC048 M11/M12 A3023 RMK AO2 SNE35 SLP240 P0000 T11061122 FZRANO
PAGA 220856Z AUTO 11008KT 9SM -SN OVC050 M11/M12 A3020 RMK AO2 SLP232 P0000 60000 T11061122 410891128 51013 FZRANO
PAGA 220756Z AUTO 09004KT 9SM -SN FEW041 BKN050 OVC085 M12/M13 A3020 RMK AO2 SNB50 SLP231 P0000 T11171133 FZRANO
PAGA 220656Z AUTO 11003KT 10SM CLR M12/M14 A3019 RMK AO2 SNE11 SLP226 P0000 T11221139 FZRANO
PAGA 220614Z AUTO 10005KT 9SM FEW015 SCT027 M11/M13 A3017 RMK AO2 SNE11 P0000 FZRANO
PAGA 220556Z AUTO 10008KT 7SM -SN SCT011 BKN017 OVC027 M11/M12 A3017 RMK AO2 SLP219 P0000 60000 T11061122 11089 21106 51014 FZRANO
PAGA 220456Z AUTO 09006KT 10SM -SN OVC011 M09/M12 A3016 RMK AO2 SNB55 SLP218 P0000 T10941122 FZRANO
PAGA 220414Z AUTO 10006KT 10SM OVC013 M09/M12 A3014 RMK AO2 FZRANO
PAGA 220256Z AUTO 11005KT 10SM OVC017 M09/M12 A3012 RMK AO2 SLP205 60000 T10941122 51012 FZRANO
PAGA 220156Z AUTO 10006KT 10SM OVC017 M09/M12 A3011 RMK AO2 SNE10 SLP201 P0000 T10891122 FZRANO
PAGA 220056Z AUTO 15006KT 9SM -SN OVC021 M09/M12 A3011 RMK AO2 SLP200 P0000 T10891117 FZRANO
PAGA 212356Z AUTO 10008KT 6SM -SN BKN022 BKN029 OVC035 M09/M12 A3009 RMK AO2 SLP193 P0000 60000 T10941122 11094 21111 51008 FZRANO
PAGA 212353Z AUTO 11008KT 6SM -SN BKN022 BKN033 OVC065 M09/M12 A3009 RMK AO2 P0000 FZRANO
PAGA 212256Z AUTO 09007KT 9SM -SN FEW022 SCT036 OVC049 M10/M12 A3008 RMK AO2 SLP190 P0000 T11001122 FZRANO
PAGA 212156Z AUTO 09009KT 9SM -SN FEW025 BKN055 OVC070 M11/M13 A3006 RMK AO2 SLP185 P0000 T11061128 FZRANO
PAGA 212142Z AUTO 09008KT 3SM -SN BR SCT008 BKN031 OVC070 M11/M13 A3006 RMK AO2 P0000 FZRANO
PAGA 212140Z AUTO 09008KT 1 3/4SM -SN BR SCT008 BKN031 OVC050 M11/M12 A3006 RMK AO2 VIS 1/2V5 P0000 FZRANO
PAGA 212137Z AUTO 10007KT 1SM -SN BR SCT008 BKN020 OVC047 M11/M12 A3006 RMK AO2 VIS 1/2V5 P0000 FZRANO
PAGA 212133Z AUTO 09006KT 3/4SM -SN BR SCT006 BKN012 OVC029 M11/M12 A3006 RMK AO2 P0000 FZRANO
PAGA 212127Z AUTO 09005KT 1/4SM SN FZFG SCT006 BKN012 OVC019 M11/M13 A3006 RMK AO2 P0000 FZRANO
PAGA 212117Z AUTO 11005KT 1/2SM SN FZFG BKN008 BKN012 OVC017 M11/M13 A3006 RMK AO2 CIG 006V010 P0000 FZRANO
PAGA 212103Z AUTO 11006KT 1/2SM SN FZFG BKN012 BKN019 OVC043 M11/M13 A3005 RMK AO2 P0000 FZRANO
PAGA 212059Z AUTO 11006KT 3/4SM -SN BR SCT012 BKN019 OVC041 M11/M13 A3005 RMK AO2 CIG 016V025 P0000 FZRANO
PAGA 212056Z AUTO 11007KT 1SM -SN BR SCT015 BKN030 OVC041 M11/M13 A3005 RMK AO2 SLP180 P0000 60000 T11111133 51016 FZRANO
PAGA 212024Z AUTO 13007KT 2 1/2SM -SN OVC033 M11/M14 A3004 RMK AO2 VIS 2V4 P0000 FZRANO
PAGA 211956Z AUTO 12007KT 5SM -SN SCT014 OVC031 M11/M15 A3003 RMK AO2 SLP174 P0000 T11061150 FZRANO
PAGA 211954Z AUTO 12008KT 5SM -SN SCT014 OVC033 M11/M15 A3003 RMK AO2 P0000 FZRANO
PAGA 211945Z AUTO 13004KT 3SM -SN SCT014 BKN019 OVC040 M11/M14 A3003 RMK AO2 P0000 FZRANO
PAGA 211936Z AUTO 14005KT 2SM -SN BKN014 BKN019 OVC031 M11/M14 A3002 RMK AO2 VIS 1 1/2V3 P0000 FZRANO
PAGA 211856Z AUTO 09010KT 9SM -SN OVC028 M10/M15 A3000 RMK AO2 SNB07 SLP165 P0000 T11001150 FZRANO